Share

Grand Forks Air Force Base, ND

11:06 AM CDT on April 23, 2014 (GMT -0500)
Grand Forks International (KGFK) Elev 843 ft | 47.95 °N, 97.18 °W | Change Station

Current weather conditions updated 13 minutes ago

Light Rain
Light Rain
44 °F
Feels Like 36 °F
N
20
Wind Variable Wind from SE
Sunrise 6:24 AM
Sunset 8:30 PM
Moon Waning Crescent

Today is forecast to be Much Cooler than yesterday. Cloudy with rain.

Pressure 29.89 in
Visibility 8.0 miles
Clouds Scattered Clouds 2100 ft
Scattered Clouds 2700 ft
Overcast 6500 ft
Windchill 36 °F
Dew Point 36 °F
Humidity 73%
Rainfall 0.00 in
Snow Depth Not available.
UV 2 out of 16
Pollen 7.80 out of 12
Air Quality Not available.
Flu Activity Sporadic
METAR KGFK 231553Z 14017KT 8SM -RA SCT021 SCT027 OVC065 07/02 A2987 RMK AO2 PK WND 14026/1511 RAB33 SLP122 P0000 T00670022

More Conditions Fewer Conditions

Pressure 29.89 in
Visibility 8.0 miles
Clouds Scattered Clouds 2100 ft
Scattered Clouds 2700 ft
Overcast 6500 ft
Windchill 36 °F
Dew Point 36 °F
Humidity 73%
Rainfall 0.00 in
Snow Depth Not available.
UV 2 out of 16
Pollen 7.80 out of 12
Air Quality Not available.
Flu Activity Sporadic
METAR KGFK 231553Z 14017KT 8SM -RA SCT021 SCT027 OVC065 07/02 A2987 RMK AO2 PK WND 14026/1511 RAB33 SLP122 P0000 T00670022

More Conditions Fewer Conditions

10-Day Weather Forecast

Almanac

Astronomy

Apr. 23, 2014 Rise Set
Actual Time 6:24 AM CDT 8:30 PM CDT
Civil Twilight 5:50 AM CDT 9:04 PM CDT
Nautical Twilight 5:09 AM CDT 9:45 PM CDT
Astronomical Twilight 4:22 AM CDT 10:32 PM CDT
Moon 3:24 AM CDT 2:14 PM CDT
Length of Visible Light 15h 13m
Length of Day
14h 06m
Tomorrow will be 3m 12s longer.
Waning Crescent, 35% of the Moon is Illuminated
Today
Waning Crescent
Apr 29
New
May 6
First Quarter
May 14
Full
May 21
Last Quarter

Today's Extremes

State Highs State Lows

Community

  • spring flowers
    spring flowers
  • Earth Day Spectrum Ove' Blue
    Earth Day Spectrum Ove' Blue
  • BARN B&W
    BARN B&W
  • April Sunset
    April Sunset
  • Waiting..
    Waiting..

WunderPhotos

Upload Photos

1,704,319 photos uploaded!

Nearby

Snow Depth

Station Depth Elevation
No new snow has been reported.

Coastal Water Temperatures

Place Temperature
No Stations Reporting

Earthquake Activity

City Distance Mag. Time & Date
No recent earthquake activity has been reported nearby.
Minimum magnitude displayed is 2.5.

Nearby Weather Stations

Station Location Temp. Windchill Dew Point Humidity Wind Precip. Elev Updated Type
Grand Forks, ND 44.6 °F 41 °F 36 °F 70% NNW  at  5.6 mph 0.06 in / hr 830 ft 11:06 AM CDT Rapid Fire

Show More Stations Show Fewer Stations

What do you think?

We're not finished. Please let us know what you like, what you don't like, and what you are still missing.